createdAt,value
2022-12-25T00:00:56.007Z,1.51
2022-12-25T00:03:28.951Z,1.50
2022-12-25T00:06:02.770Z,1.50
2022-12-25T00:08:36.605Z,1.45
2022-12-25T00:11:14.158Z,1.40
2022-12-25T00:13:47.588Z,1.37
2022-12-25T00:16:24.432Z,1.40
2022-12-25T00:19:01.012Z,1.46
2022-12-25T00:21:33.863Z,1.50
2022-12-25T00:24:08.080Z,1.54
2022-12-25T00:26:41.529Z,1.55
2022-12-25T00:29:14.628Z,1.57
2022-12-25T00:31:47.244Z,1.56
2022-12-25T00:34:20.267Z,1.52
2022-12-25T00:36:53.824Z,1.50
2022-12-25T00:39:26.849Z,1.50
2022-12-25T00:42:17.478Z,1.49
2022-12-25T00:44:51.638Z,1.42
2022-12-25T00:47:24.921Z,1.41
2022-12-25T00:49:57.754Z,1.42
2022-12-25T00:52:30.566Z,1.42
2022-12-25T00:55:03.626Z,1.44
2022-12-25T00:57:37.542Z,1.44
2022-12-25T01:00:11.899Z,1.50
2022-12-25T01:02:44.810Z,1.53
2022-12-25T01:05:18.482Z,1.51
2022-12-25T01:07:53.912Z,1.52
2022-12-25T01:10:26.846Z,1.53
2022-12-25T01:13:00.124Z,1.51
2022-12-25T01:15:33.938Z,1.50
2022-12-25T01:18:08.086Z,1.50
2022-12-25T01:20:41.227Z,1.49
2022-12-25T01:23:14.592Z,1.49
2022-12-25T01:25:47.288Z,1.48
2022-12-25T01:28:20.442Z,1.47
2022-12-25T01:30:53.261Z,1.51
2022-12-25T01:33:26.105Z,1.53
2022-12-25T01:35:58.860Z,1.54
2022-12-25T01:38:31.909Z,1.53
2022-12-25T01:41:05.193Z,1.53
2022-12-25T01:43:41.608Z,1.53
2022-12-25T01:46:14.412Z,1.55
2022-12-25T01:48:47.428Z,1.55
2022-12-25T01:51:27.631Z,1.56
2022-12-25T01:54:03.496Z,1.55
2022-12-25T01:56:37.331Z,1.53
2022-12-25T01:59:11.601Z,1.52
2022-12-25T02:01:43.488Z,1.53
2022-12-25T02:04:41.203Z,1.55
2022-12-25T02:07:21.044Z,1.56
2022-12-25T02:09:54.674Z,1.56
2022-12-25T02:12:31.497Z,1.52
2022-12-25T02:15:15.503Z,1.50
2022-12-25T02:18:12.704Z,1.50
2022-12-25T02:21:05.055Z,1.46
2022-12-25T02:24:05.372Z,1.40
2022-12-25T02:26:59.965Z,1.41
2022-12-25T02:29:55.930Z,1.46
2022-12-25T02:32:32.535Z,1.48
2022-12-25T02:35:23.425Z,1.43
2022-12-25T02:38:04.445Z,1.40
2022-12-25T02:40:46.580Z,1.38
2022-12-25T02:43:44.934Z,1.39
2022-12-25T02:46:38.270Z,1.41
2022-12-25T02:49:36.097Z,1.44
2022-12-25T02:52:32.646Z,1.44
2022-12-25T02:55:38.002Z,1.46
2022-12-25T02:58:32.496Z,1.44
2022-12-25T03:01:27.759Z,1.44
2022-12-25T03:04:23.572Z,1.44
2022-12-25T03:07:06.544Z,1.48
2022-12-25T03:10:05.048Z,1.50
2022-12-25T03:12:45.444Z,1.46
2022-12-25T03:15:38.762Z,1.44
2022-12-25T03:18:15.691Z,1.47
2022-12-25T03:21:06.141Z,1.53
2022-12-25T03:23:59.187Z,1.55
2022-12-25T03:26:50.095Z,1.53
2022-12-25T03:29:47.305Z,1.50
2022-12-25T03:32:44.662Z,1.52
2022-12-25T03:35:40.309Z,1.56
2022-12-25T03:38:52.245Z,1.57
2022-12-25T03:42:05.558Z,1.55
2022-12-25T03:45:06.180Z,1.53
2022-12-25T03:48:00.685Z,1.55
2022-12-25T03:51:00.082Z,1.53
2022-12-25T03:54:04.348Z,1.51
2022-12-25T03:56:56.086Z,1.53
2022-12-25T03:59:46.703Z,1.52
2022-12-25T04:02:37.702Z,1.50
2022-12-25T04:05:28.558Z,1.51
2022-12-25T04:08:19.301Z,1.52
2022-12-25T04:11:09.957Z,1.53
2022-12-25T04:13:44.617Z,1.56
2022-12-25T04:16:35.369Z,1.57
2022-12-25T04:19:28.271Z,1.60
2022-12-25T04:22:19.275Z,1.60
2022-12-25T04:25:09.607Z,1.57
2022-12-25T04:28:01.162Z,1.54
2022-12-25T04:30:51.845Z,1.52
2022-12-25T04:33:42.510Z,1.51
2022-12-25T04:36:15.350Z,1.47
2022-12-25T04:38:48.353Z,1.41
2022-12-25T04:41:21.131Z,1.38
2022-12-25T04:43:54.305Z,1.38
2022-12-25T04:46:27.516Z,1.39
2022-12-25T04:49:00.500Z,1.36
2022-12-25T04:51:33.238Z,1.39
2022-12-25T04:54:06.253Z,1.44
2022-12-25T04:56:43.590Z,1.50
2022-12-25T04:59:13.557Z,1.52
2022-12-25T05:01:46.922Z,1.51
2022-12-25T05:04:20.101Z,1.49
2022-12-25T05:06:52.931Z,1.50
2022-12-25T05:09:27.782Z,1.56
2022-12-25T05:12:00.907Z,1.60
2022-12-25T05:14:33.757Z,1.59
2022-12-25T05:17:08.164Z,1.59
2022-12-25T05:19:41.664Z,1.56
2022-12-25T05:22:14.666Z,1.56
2022-12-25T05:24:47.307Z,1.59
2022-12-25T05:27:20.121Z,1.62
2022-12-25T05:29:53.321Z,1.65
2022-12-25T05:32:27.702Z,1.67
2022-12-25T05:35:00.927Z,1.66
2022-12-25T05:37:34.056Z,1.67
2022-12-25T05:40:08.548Z,1.64
2022-12-25T05:42:41.533Z,1.66
2022-12-25T05:45:14.391Z,1.70
2022-12-25T05:47:47.158Z,1.73
2022-12-25T05:50:20.164Z,1.75
2022-12-25T05:52:52.836Z,1.79
2022-12-25T05:55:26.111Z,1.80
2022-12-25T05:57:59.714Z,1.83
2022-12-25T06:00:33.555Z,1.85
2022-12-25T06:03:06.867Z,1.89
2022-12-25T06:05:41.153Z,1.93
2022-12-25T06:08:14.191Z,1.96
2022-12-25T06:10:47.522Z,2.01
2022-12-25T06:13:20.898Z,2.02
2022-12-25T06:15:54.211Z,2.04
2022-12-25T06:18:28.043Z,2.04
2022-12-25T06:21:00.924Z,2.07
2022-12-25T06:23:34.507Z,2.11
2022-12-25T06:26:10.182Z,2.12
2022-12-25T06:28:43.315Z,2.11
2022-12-25T06:31:20.318Z,2.14
2022-12-25T06:33:53.171Z,2.16
2022-12-25T06:36:29.816Z,2.19
2022-12-25T06:39:04.325Z,2.19
2022-12-25T06:41:38.592Z,2.19
2022-12-25T06:44:11.815Z,2.18
2022-12-25T06:46:44.863Z,2.22
2022-12-25T06:49:17.721Z,2.26
2022-12-25T06:51:50.419Z,2.29
2022-12-25T06:54:23.291Z,2.35
2022-12-25T06:56:56.261Z,2.40
2022-12-25T06:59:29.795Z,2.43
2022-12-25T07:02:11.772Z,2.45
2022-12-25T07:04:44.949Z,2.43
2022-12-25T07:07:18.094Z,2.44
2022-12-25T07:09:51.493Z,2.45
2022-12-25T07:12:25.965Z,2.47
2022-12-25T07:14:58.844Z,2.46
2022-12-25T07:17:31.941Z,2.47
2022-12-25T07:20:04.830Z,2.51
2022-12-25T07:22:37.821Z,2.57
2022-12-25T07:25:11.336Z,2.60
2022-12-25T07:27:44.319Z,2.63
2022-12-25T07:30:17.845Z,2.65
2022-12-25T07:32:52.121Z,2.71
2022-12-25T07:35:25.020Z,2.77
2022-12-25T07:37:58.425Z,2.83
2022-12-25T07:40:31.782Z,2.86
2022-12-25T07:43:05.256Z,2.90
2022-12-25T07:45:39.781Z,2.96
2022-12-25T07:48:16.921Z,3.00
2022-12-25T07:50:48.855Z,3.06
2022-12-25T07:53:22.087Z,3.13
2022-12-25T07:56:07.234Z,3.19
2022-12-25T07:58:40.978Z,3.22
2022-12-25T08:01:21.398Z,3.27
2022-12-25T08:03:57.553Z,3.29
2022-12-25T08:06:36.449Z,3.34
2022-12-25T08:09:14.063Z,3.36
2022-12-25T08:11:48.574Z,3.42
2022-12-25T08:14:21.788Z,3.47
2022-12-25T08:16:55.010Z,3.52
2022-12-25T08:19:29.467Z,3.58
2022-12-25T08:22:02.314Z,3.64
2022-12-25T08:24:35.311Z,3.68
2022-12-25T08:27:08.323Z,3.69
2022-12-25T08:29:41.537Z,3.73
2022-12-25T08:32:15.022Z,3.75
2022-12-25T08:34:49.582Z,3.78
2022-12-25T08:37:22.767Z,3.82
2022-12-25T08:39:55.689Z,3.84
2022-12-25T08:42:28.450Z,3.84
2022-12-25T08:45:01.349Z,3.85
2022-12-25T08:47:34.443Z,3.90
2022-12-25T08:50:08.831Z,3.94
2022-12-25T08:52:41.852Z,3.99
2022-12-25T08:55:14.924Z,4.03
2022-12-25T08:57:47.854Z,4.05
2022-12-25T09:00:21.776Z,4.11
2022-12-25T09:02:54.835Z,4.16
2022-12-25T09:05:28.724Z,4.23
2022-12-25T09:08:01.994Z,4.30
2022-12-25T09:10:37.925Z,4.37
2022-12-25T09:13:11.363Z,4.43
2022-12-25T09:15:44.536Z,4.49
2022-12-25T09:18:17.314Z,4.52
2022-12-25T09:21:02.121Z,4.54
2022-12-25T09:23:35.973Z,4.56
2022-12-25T09:26:12.053Z,4.59
2022-12-25T09:28:51.436Z,4.59
2022-12-25T09:31:20.626Z,4.65
2022-12-25T09:33:57.058Z,4.70
2022-12-25T09:36:30.157Z,4.70
2022-12-25T09:39:03.638Z,4.75
2022-12-25T09:41:53.613Z,4.79
2022-12-25T09:44:33.963Z,4.81
2022-12-25T09:47:13.743Z,4.79
2022-12-25T09:50:05.978Z,4.71
2022-12-25T09:52:49.332Z,4.66
2022-12-25T09:55:28.341Z,4.71
2022-12-25T09:58:03.668Z,4.79
2022-12-25T10:00:43.421Z,4.85
2022-12-25T10:03:44.869Z,4.89
2022-12-25T10:06:28.258Z,4.96
2022-12-25T10:09:40.750Z,4.97
2022-12-25T10:12:45.949Z,4.95
2022-12-25T10:15:58.707Z,4.95
2022-12-25T10:19:03.241Z,4.92
2022-12-25T10:21:36.737Z,4.91
2022-12-25T10:24:29.356Z,4.87
2022-12-25T10:27:06.400Z,4.86
2022-12-25T10:29:40.007Z,4.79
2022-12-25T10:32:12.886Z,4.73
2022-12-25T10:34:46.086Z,4.69
2022-12-25T10:37:20.479Z,4.62
2022-12-25T10:39:53.222Z,4.52
2022-12-25T10:42:42.353Z,4.41
2022-12-25T10:45:15.489Z,4.38
2022-12-25T10:47:54.396Z,4.29
2022-12-25T10:50:25.995Z,4.21
2022-12-25T10:53:08.790Z,4.17
2022-12-25T10:55:42.055Z,4.17
2022-12-25T10:58:23.456Z,4.20
2022-12-25T11:01:04.410Z,4.21
2022-12-25T11:03:40.785Z,4.23
2022-12-25T11:06:29.898Z,4.26
2022-12-25T11:09:04.255Z,4.30
2022-12-25T11:11:38.491Z,4.26
2022-12-25T11:14:16.272Z,4.24
2022-12-25T11:16:49.235Z,4.24
2022-12-25T11:19:34.093Z,4.25
2022-12-25T11:22:08.682Z,4.29
2022-12-25T11:24:42.202Z,4.35
2022-12-25T11:27:27.474Z,4.37
2022-12-25T11:30:07.829Z,4.37
2022-12-25T11:32:47.363Z,4.37
2022-12-25T11:35:21.137Z,4.37
2022-12-25T11:37:55.329Z,4.38
2022-12-25T11:40:50.439Z,4.41
2022-12-25T11:43:41.960Z,4.45
2022-12-25T11:46:28.697Z,4.48
2022-12-25T11:49:11.057Z,4.45
2022-12-25T11:51:46.394Z,4.46
2022-12-25T11:54:29.287Z,4.50
2022-12-25T11:57:04.697Z,4.49
2022-12-25T11:59:51.799Z,4.49
2022-12-25T12:02:32.451Z,4.53
2022-12-25T12:05:19.055Z,4.55
2022-12-25T12:08:01.763Z,4.56
2022-12-25T12:10:59.153Z,4.58
2022-12-25T12:13:52.603Z,4.60
2022-12-25T12:16:25.811Z,4.65
2022-12-25T12:18:59.292Z,4.67
2022-12-25T12:21:33.355Z,4.69
2022-12-25T12:24:22.498Z,4.68
2022-12-25T12:27:05.662Z,4.67
2022-12-25T12:29:43.576Z,4.62
2022-12-25T12:32:40.908Z,4.59
2022-12-25T12:35:24.166Z,4.65
2022-12-25T12:38:07.247Z,4.66
2022-12-25T12:40:48.124Z,4.64
2022-12-25T12:43:48.550Z,4.63
2022-12-25T12:46:31.817Z,4.62
2022-12-25T12:49:27.629Z,4.58
2022-12-25T12:52:25.788Z,4.55
2022-12-25T12:55:09.150Z,4.53
2022-12-25T12:57:43.403Z,4.55
2022-12-25T13:00:22.946Z,4.52
2022-12-25T13:03:16.845Z,4.48
2022-12-25T13:06:18.551Z,4.41
2022-12-25T13:09:08.013Z,4.36
2022-12-25T13:11:43.665Z,4.29
2022-12-25T13:14:20.536Z,4.23
2022-12-25T13:16:57.101Z,4.22
2022-12-25T13:19:31.328Z,4.20
2022-12-25T13:22:07.629Z,4.21
2022-12-25T13:24:40.916Z,4.19
2022-12-25T13:27:30.265Z,4.18
2022-12-25T13:30:20.646Z,4.16
2022-12-25T13:32:53.925Z,4.15
2022-12-25T13:35:27.705Z,4.15
2022-12-25T13:38:01.448Z,4.16
2022-12-25T13:40:35.471Z,4.17
2022-12-25T13:43:10.796Z,4.19
2022-12-25T13:45:44.221Z,4.20
2022-12-25T13:48:17.695Z,4.24
2022-12-25T13:50:59.781Z,4.25
2022-12-25T13:53:33.837Z,4.21
2022-12-25T13:56:07.150Z,4.16
2022-12-25T13:58:41.704Z,4.10
2022-12-25T14:01:17.385Z,4.07
2022-12-25T14:03:50.656Z,4.03
2022-12-25T14:06:31.820Z,4.02
2022-12-25T14:09:06.823Z,4.02
2022-12-25T14:11:42.517Z,4.03
2022-12-25T14:14:25.885Z,4.04
2022-12-25T14:17:00.133Z,4.06
2022-12-25T14:19:35.821Z,4.08
2022-12-25T14:22:21.164Z,4.10
2022-12-25T14:24:54.203Z,4.10
2022-12-25T14:27:31.936Z,4.11
2022-12-25T14:30:05.239Z,4.09
2022-12-25T14:32:42.748Z,4.07
2022-12-25T14:35:22.974Z,4.06
2022-12-25T14:37:55.025Z,4.05
2022-12-25T14:40:31.840Z,4.03
2022-12-25T14:43:08.220Z,4.04
2022-12-25T14:45:41.688Z,4.05
2022-12-25T14:48:25.311Z,4.04
2022-12-25T14:51:15.067Z,4.07
2022-12-25T14:53:54.805Z,4.08
2022-12-25T14:56:29.545Z,4.08
2022-12-25T14:59:03.180Z,4.06
2022-12-25T15:01:42.034Z,4.02
2022-12-25T15:04:17.592Z,4.02
2022-12-25T15:07:00.777Z,4.02
2022-12-25T15:09:34.290Z,4.01
2022-12-25T15:12:07.911Z,3.98
2022-12-25T15:14:41.236Z,3.96
2022-12-25T15:17:27.257Z,3.96
2022-12-25T15:20:01.825Z,3.96
2022-12-25T15:23:02.465Z,3.97
2022-12-25T15:25:15.101Z,3.99
2022-12-25T15:27:48.729Z,4.03
2022-12-25T15:30:21.680Z,4.05
2022-12-25T15:32:54.641Z,4.05
2022-12-25T15:35:29.476Z,4.06
2022-12-25T15:38:02.867Z,4.06
2022-12-25T15:40:36.356Z,4.10
2022-12-25T15:43:39.033Z,4.12
2022-12-25T15:45:48.211Z,4.15
2022-12-25T15:48:21.261Z,4.17
2022-12-25T15:50:54.358Z,4.20
2022-12-25T15:53:27.416Z,4.20
2022-12-25T15:56:00.611Z,4.20
2022-12-25T15:58:33.958Z,4.20
2022-12-25T16:01:07.230Z,4.22
2022-12-25T16:03:40.818Z,4.23
2022-12-25T16:06:19.221Z,4.23
2022-12-25T16:08:52.511Z,4.23
2022-12-25T16:11:25.717Z,4.22
2022-12-25T16:13:59.080Z,4.21
2022-12-25T16:16:33.970Z,4.21
2022-12-25T16:19:09.062Z,4.19
2022-12-25T16:21:46.406Z,4.16
2022-12-25T16:24:19.400Z,4.14
2022-12-25T16:26:52.583Z,4.11
2022-12-25T16:29:25.862Z,4.08
2022-12-25T16:31:58.883Z,4.04
2022-12-25T16:34:32.130Z,4.05
2022-12-25T16:37:05.707Z,4.08
2022-12-25T16:39:39.848Z,4.09
2022-12-25T16:42:13.604Z,4.12
2022-12-25T16:44:49.016Z,4.13
2022-12-25T16:47:22.080Z,4.14
2022-12-25T16:49:55.467Z,4.17
2022-12-25T16:52:30.313Z,4.19
2022-12-25T16:55:04.569Z,4.18
2022-12-25T16:57:37.818Z,4.15
2022-12-25T17:00:13.184Z,4.13
2022-12-25T17:02:46.663Z,4.11
2022-12-25T17:05:19.906Z,4.13
2022-12-25T17:07:53.664Z,4.12
2022-12-25T17:10:27.086Z,4.11
2022-12-25T17:13:00.683Z,4.11
2022-12-25T17:15:34.137Z,4.07
2022-12-25T17:18:07.533Z,4.03
2022-12-25T17:20:41.211Z,4.01
2022-12-25T17:23:14.761Z,4.00
2022-12-25T17:25:47.781Z,4.01
2022-12-25T17:28:20.718Z,4.01
2022-12-25T17:30:54.302Z,4.08
2022-12-25T17:33:27.880Z,4.08
2022-12-25T17:36:10.696Z,4.11
2022-12-25T17:38:44.233Z,4.13
2022-12-25T17:41:19.579Z,4.13
2022-12-25T17:43:53.731Z,4.13
2022-12-25T17:46:29.956Z,4.12
2022-12-25T17:49:04.215Z,4.10
2022-12-25T17:51:37.653Z,4.11
2022-12-25T17:54:11.744Z,4.14
2022-12-25T17:56:45.301Z,4.16
2022-12-25T17:59:19.149Z,4.15
2022-12-25T18:01:53.132Z,4.15
2022-12-25T18:04:26.490Z,4.12
2022-12-25T18:06:59.569Z,4.11
2022-12-25T18:09:33.856Z,4.09
2022-12-25T18:12:08.208Z,4.07
2022-12-25T18:14:42.009Z,4.07
2022-12-25T18:17:15.127Z,4.06
2022-12-25T18:19:49.792Z,4.04
2022-12-25T18:22:23.082Z,4.04
2022-12-25T18:24:56.283Z,4.03
2022-12-25T18:27:29.122Z,4.03
2022-12-25T18:30:02.294Z,4.05
2022-12-25T18:32:37.016Z,4.08
2022-12-25T18:35:10.956Z,4.09
2022-12-25T18:37:43.907Z,4.10
2022-12-25T18:40:17.165Z,4.11
2022-12-25T18:42:56.363Z,4.14
2022-12-25T18:45:27.088Z,4.16
2022-12-25T18:48:02.009Z,4.15
2022-12-25T18:50:37.868Z,4.12
2022-12-25T18:53:12.097Z,4.10
2022-12-25T18:55:45.403Z,4.10
2022-12-25T18:58:21.169Z,4.11
2022-12-25T19:00:56.042Z,4.13
2022-12-25T19:03:29.801Z,4.14
2022-12-25T19:06:02.740Z,4.17
2022-12-25T19:08:35.725Z,4.18
2022-12-25T19:11:10.036Z,4.19
2022-12-25T19:13:42.783Z,4.18
2022-12-25T19:16:16.740Z,4.16
2022-12-25T19:18:50.298Z,4.14
2022-12-25T19:21:23.634Z,4.12
2022-12-25T19:23:57.024Z,4.13
2022-12-25T19:26:30.115Z,4.15
2022-12-25T19:29:04.022Z,4.15
2022-12-25T19:31:38.390Z,4.19
2022-12-25T19:34:12.991Z,4.20
2022-12-25T19:36:46.366Z,4.19
2022-12-25T19:39:21.143Z,4.20
2022-12-25T19:41:54.787Z,4.21
2022-12-25T19:44:28.799Z,4.22
2022-12-25T19:47:12.502Z,4.22
2022-12-25T19:49:53.246Z,4.25
2022-12-25T19:52:24.376Z,4.26
2022-12-25T19:55:04.045Z,4.29
2022-12-25T20:00:36.598Z,4.31
2022-12-25T20:03:10.972Z,4.32
2022-12-25T20:05:49.624Z,4.31
2022-12-25T20:08:23.471Z,4.30
2022-12-25T20:10:57.425Z,4.29
2022-12-25T20:13:32.129Z,4.29
2022-12-25T20:16:10.807Z,4.29
2022-12-25T20:18:44.478Z,4.29
2022-12-25T20:21:21.260Z,4.29
2022-12-25T20:23:55.479Z,4.28
2022-12-25T20:26:32.394Z,4.28
2022-12-25T20:29:06.071Z,4.27
2022-12-25T20:31:39.323Z,4.27
2022-12-25T20:34:13.896Z,4.26
2022-12-25T20:36:49.515Z,4.24
2022-12-25T20:39:24.578Z,4.24
2022-12-25T20:41:57.737Z,4.23
2022-12-25T20:44:30.590Z,4.23
2022-12-25T20:47:03.961Z,4.23
2022-12-25T20:49:37.037Z,4.23
2022-12-25T20:52:10.556Z,4.22
2022-12-25T20:54:43.944Z,4.19
2022-12-25T20:57:17.022Z,4.20
2022-12-25T20:59:50.072Z,4.21
2022-12-25T21:02:35.625Z,4.23
2022-12-25T21:04:58.546Z,4.25
2022-12-25T21:07:31.887Z,4.29
2022-12-25T21:10:06.196Z,4.28
2022-12-25T21:12:40.335Z,4.28
2022-12-25T21:15:15.935Z,4.27
2022-12-25T21:17:49.200Z,4.26
2022-12-25T21:20:22.511Z,4.27
2022-12-25T21:22:57.319Z,4.28
2022-12-25T21:25:32.500Z,4.29
2022-12-25T21:28:05.853Z,4.29
2022-12-25T21:30:40.262Z,4.27
2022-12-25T21:33:34.173Z,4.26
2022-12-25T21:36:14.579Z,4.24
2022-12-25T21:38:58.529Z,4.18
2022-12-25T21:41:32.883Z,4.14
2022-12-25T21:44:07.062Z,4.08
2022-12-25T21:46:39.613Z,4.05
2022-12-25T21:49:12.367Z,4.07
2022-12-25T21:52:03.161Z,4.09
2022-12-25T21:54:36.500Z,4.12
2022-12-25T21:57:11.035Z,4.13
2022-12-25T21:59:46.427Z,4.15
2022-12-25T22:02:20.682Z,4.14
2022-12-25T22:04:54.252Z,4.14
2022-12-25T22:07:28.913Z,4.15
2022-12-25T22:10:02.005Z,4.18
2022-12-25T22:12:53.619Z,4.18
2022-12-25T22:15:45.156Z,4.20
2022-12-25T22:18:35.898Z,4.21
2022-12-25T22:21:08.992Z,4.19
2022-12-25T22:23:42.307Z,4.19
2022-12-25T22:26:20.663Z,4.18
2022-12-25T22:28:50.191Z,4.16
2022-12-25T22:31:23.226Z,4.15
2022-12-25T22:33:57.151Z,4.15
2022-12-25T22:36:30.446Z,4.15
2022-12-25T22:39:03.532Z,4.12
2022-12-25T22:41:36.870Z,4.14
2022-12-25T22:44:18.574Z,4.15
2022-12-25T22:46:45.100Z,4.15
2022-12-25T22:49:18.678Z,4.12
2022-12-25T22:51:52.975Z,4.09
2022-12-25T22:54:27.135Z,4.05
2022-12-25T22:57:00.698Z,4.04
2022-12-25T22:59:33.769Z,4.03
2022-12-25T23:02:07.046Z,4.03
2022-12-25T23:04:40.334Z,4.04
2022-12-25T23:07:14.759Z,4.04
2022-12-25T23:09:48.843Z,4.03
2022-12-25T23:12:40.028Z,4.04
2022-12-25T23:15:13.649Z,4.05
2022-12-25T23:18:04.327Z,4.05
2022-12-25T23:20:58.058Z,4.06
2022-12-25T23:23:48.776Z,4.03
2022-12-25T23:26:22.947Z,3.98
2022-12-25T23:29:13.044Z,3.95
2022-12-25T23:31:48.065Z,3.94
2022-12-25T23:34:22.042Z,3.90
2022-12-25T23:36:55.062Z,3.91
2022-12-25T23:39:28.992Z,3.91
2022-12-25T23:42:02.326Z,3.91
2022-12-25T23:44:36.308Z,3.91
2022-12-25T23:47:09.450Z,3.90
2022-12-25T23:49:42.673Z,3.88
2022-12-25T23:52:15.611Z,3.88
2022-12-25T23:54:50.464Z,3.85
2022-12-25T23:57:23.478Z,3.84
2022-12-25T23:59:56.423Z,3.84
